Aérodrome :
LOGIN :

S'inscrire | Disclaimer

   EN    FR    IT 

 










Légende :    VFR   VFR Marginal   IFR   IFR Intensif   IFR Très Intensif
Visi : 
Plafond : 
>= 8 km
>= 3000ft
5 à 8 km
1000 à 3000 ft
1500m à 5 km
500 à 1000 ft
800 à 1500m
200 à 500 ft
< 800m
< 200 ft
Symboles :   Orages  Brouillard  Fortes neiges  Fortes précipitations  Vent > 20 kt
SIGMETs :   Divers  Orages  Givrage  Turbulence  Onde Orograph.  Cendres Volcan.







- Altitude de l'aérodrome : 326 ft
- Code IATA : LCG
- Voir les cartes d'approche


LECO - A Coruna

DERNIER METAR :
  • 250100Z AUTO 01004KT 340V050 9999 NCD 10/06 Q1025

METARs EXPIRÉS :
  • 250030Z AUTO 35005KT 320V030 9999 NCD 11/06 Q1025
  • 250000Z 35004KT CAVOK 11/06 Q1025 NOSIG
  • 242330Z 32004KT CAVOK 11/06 Q1025 NOSIG
  • 242300Z 33003KT 300V020 CAVOK 11/06 Q1025 NOSIG
  • 242230Z 34003KT 300V030 CAVOK 11/06 Q1025 NOSIG
  • 242200Z 34003KT 300V030 CAVOK 11/05 Q1026 NOSIG

TAF TAF LECO
Valide du 24 à 21h jusqu'au 25 à 21h UTC


242000Z 2421/2521 05006KT CAVOK TX18/2515Z TN07/2507Z
PROB30
TEMPO 2503/2507 3000 BR
PROB30
TEMPO 2503/2507 1500 BCFG BKN005
PROB30
TEMPO 2511/2518 05012G22KT
Pas de NOTAMs connus pour ce terrain.



MET'MAP, la Météo Aéronautique d'un coup d'oeil ! - Copyright ORBIFLY Décembre 2007 - Disclaimer

ORBIFLY MET'MAP TEAM :

Programmation & Développement : Alexandra Zaïnal
Conception & Développement : Baudouin d'Aumeries
Co-Programmation & Développement : Marc-Olivier Méhu
Soutien technique & logistique : Manuel Goepfert

Contact : metmap@orbifly.com




SOURCES & CREDITS :

   NOAA